sensor_id;sensor_type;location;lat;lon;timestamp;temperature;humidity
26262;DHT22;13988;52.446;13.280;2023-01-19T00:01:35;-2.80;99.90
26262;DHT22;13988;52.446;13.280;2023-01-19T00:04:01;-2.80;99.90
26262;DHT22;13988;52.446;13.280;2023-01-19T00:06:27;-2.80;99.90
26262;DHT22;13988;52.446;13.280;2023-01-19T00:08:52;-2.80;99.90
26262;DHT22;13988;52.446;13.280;2023-01-19T00:11:18;-2.80;99.90
26262;DHT22;13988;52.446;13.280;2023-01-19T00:13:44;-2.80;99.90
26262;DHT22;13988;52.446;13.280;2023-01-19T00:16:19;-2.80;99.90
26262;DHT22;13988;52.446;13.280;2023-01-19T00:18:47;-2.80;99.90
26262;DHT22;13988;52.446;13.280;2023-01-19T00:21:13;-2.80;99.90
26262;DHT22;13988;52.446;13.280;2023-01-19T00:23:42;-2.90;99.90
26262;DHT22;13988;52.446;13.280;2023-01-19T00:26:12;-2.90;99.90
26262;DHT22;13988;52.446;13.280;2023-01-19T00:28:38;-2.90;99.90
26262;DHT22;13988;52.446;13.280;2023-01-19T00:31:03;-2.90;99.90
26262;DHT22;13988;52.446;13.280;2023-01-19T00:33:29;-2.90;99.90
26262;DHT22;13988;52.446;13.280;2023-01-19T00:35:54;-2.90;99.90
26262;DHT22;13988;52.446;13.280;2023-01-19T00:38:20;-3.00;99.90
26262;DHT22;13988;52.446;13.280;2023-01-19T00:40:46;-2.90;99.90
26262;DHT22;13988;52.446;13.280;2023-01-19T00:43:12;-2.90;99.90
26262;DHT22;13988;52.446;13.280;2023-01-19T00:45:38;-2.80;99.90
26262;DHT22;13988;52.446;13.280;2023-01-19T00:48:04;-2.80;99.90
26262;DHT22;13988;52.446;13.280;2023-01-19T00:50:30;-2.80;99.90
26262;DHT22;13988;52.446;13.280;2023-01-19T00:52:57;-2.80;99.90
26262;DHT22;13988;52.446;13.280;2023-01-19T00:55:25;-2.80;99.90
26262;DHT22;13988;52.446;13.280;2023-01-19T00:57:53;-2.80;99.90
26262;DHT22;13988;52.446;13.280;2023-01-19T01:00:19;-2.90;99.90
26262;DHT22;13988;52.446;13.280;2023-01-19T01:02:45;-2.90;99.90
26262;DHT22;13988;52.446;13.280;2023-01-19T01:05:11;-2.90;99.90
26262;DHT22;13988;52.446;13.280;2023-01-19T01:07:37;-2.90;99.90
26262;DHT22;13988;52.446;13.280;2023-01-19T01:10:16;-3.00;99.90
26262;DHT22;13988;52.446;13.280;2023-01-19T01:12:43;-3.00;99.90
26262;DHT22;13988;52.446;13.280;2023-01-19T01:15:10;-3.00;99.90
26262;DHT22;13988;52.446;13.280;2023-01-19T01:17:36;-3.00;99.90
26262;DHT22;13988;52.446;13.280;2023-01-19T01:20:02;-3.00;99.90
26262;DHT22;13988;52.446;13.280;2023-01-19T01:22:29;-3.10;99.90
26262;DHT22;13988;52.446;13.280;2023-01-19T01:24:55;-3.00;99.90
26262;DHT22;13988;52.446;13.280;2023-01-19T01:27:20;-3.10;99.90
26262;DHT22;13988;52.446;13.280;2023-01-19T01:29:46;-3.10;99.90
26262;DHT22;13988;52.446;13.280;2023-01-19T01:32:13;-3.00;99.90
26262;DHT22;13988;52.446;13.280;2023-01-19T01:34:39;-3.00;99.90
26262;DHT22;13988;52.446;13.280;2023-01-19T01:37:05;-3.10;99.90
26262;DHT22;13988;52.446;13.280;2023-01-19T01:39:33;-3.10;99.90
26262;DHT22;13988;52.446;13.280;2023-01-19T01:41:58;-3.20;99.90
26262;DHT22;13988;52.446;13.280;2023-01-19T01:44:48;-3.10;99.90
26262;DHT22;13988;52.446;13.280;2023-01-19T01:52:33;-3.20;99.90
26262;DHT22;13988;52.446;13.280;2023-01-19T01:55:02;-3.20;99.90
26262;DHT22;13988;52.446;13.280;2023-01-19T01:57:32;-3.20;99.90
26262;DHT22;13988;52.446;13.280;2023-01-19T01:59:59;-3.30;99.90
26262;DHT22;13988;52.446;13.280;2023-01-19T02:02:26;-3.40;99.90
26262;DHT22;13988;52.446;13.280;2023-01-19T02:05:23;-3.40;99.90
26262;DHT22;13988;52.446;13.280;2023-01-19T02:08:07;-3.40;99.90
26262;DHT22;13988;52.446;13.280;2023-01-19T02:10:54;-3.40;99.90
26262;DHT22;13988;52.446;13.280;2023-01-19T02:13:40;-3.40;99.90
26262;DHT22;13988;52.446;13.280;2023-01-19T02:16:09;-3.40;99.90
26262;DHT22;13988;52.446;13.280;2023-01-19T02:18:36;-3.30;99.90
26262;DHT22;13988;52.446;13.280;2023-01-19T02:21:24;-3.40;99.90
26262;DHT22;13988;52.446;13.280;2023-01-19T02:23:53;-3.40;99.90
26262;DHT22;13988;52.446;13.280;2023-01-19T02:26:39;-3.40;99.90
26262;DHT22;13988;52.446;13.280;2023-01-19T02:29:10;-3.50;99.90
26262;DHT22;13988;52.446;13.280;2023-01-19T02:31:36;-3.50;99.90
26262;DHT22;13988;52.446;13.280;2023-01-19T02:34:05;-3.50;99.90
26262;DHT22;13988;52.446;13.280;2023-01-19T02:39:51;-3.50;99.90
26262;DHT22;13988;52.446;13.280;2023-01-19T02:44:51;-3.50;99.90
26262;DHT22;13988;52.446;13.280;2023-01-19T02:47:19;-3.50;99.90
26262;DHT22;13988;52.446;13.280;2023-01-19T02:49:54;-3.50;99.90
26262;DHT22;13988;52.446;13.280;2023-01-19T02:52:20;-3.50;99.90
26262;DHT22;13988;52.446;13.280;2023-01-19T02:55:07;-3.50;99.90
26262;DHT22;13988;52.446;13.280;2023-01-19T03:03:14;-3.60;99.90
26262;DHT22;13988;52.446;13.280;2023-01-19T03:11:58;-3.60;99.90
26262;DHT22;13988;52.446;13.280;2023-01-19T03:14:29;-3.70;99.90
26262;DHT22;13988;52.446;13.280;2023-01-19T03:16:58;-3.70;99.90
26262;DHT22;13988;52.446;13.280;2023-01-19T03:21:59;-3.80;99.90
26262;DHT22;13988;52.446;13.280;2023-01-19T03:24:28;-3.80;99.90
26262;DHT22;13988;52.446;13.280;2023-01-19T03:27:00;-3.80;99.90
26262;DHT22;13988;52.446;13.280;2023-01-19T03:29:30;-3.80;99.90
26262;DHT22;13988;52.446;13.280;2023-01-19T03:31:58;-3.80;99.90
26262;DHT22;13988;52.446;13.280;2023-01-19T03:34:27;-3.80;99.90
26262;DHT22;13988;52.446;13.280;2023-01-19T03:36:59;-3.80;99.90
26262;DHT22;13988;52.446;13.280;2023-01-19T03:39:28;-3.80;99.90
26262;DHT22;13988;52.446;13.280;2023-01-19T03:42:05;-3.90;99.90
26262;DHT22;13988;52.446;13.280;2023-01-19T03:44:35;-3.90;99.90
26262;DHT22;13988;52.446;13.280;2023-01-19T03:47:02;-3.80;99.90
26262;DHT22;13988;52.446;13.280;2023-01-19T03:49:30;-3.90;99.90
26262;DHT22;13988;52.446;13.280;2023-01-19T03:51:57;-3.90;99.90
26262;DHT22;13988;52.446;13.280;2023-01-19T03:54:24;-3.90;99.90
26262;DHT22;13988;52.446;13.280;2023-01-19T03:56:50;-3.90;99.90
26262;DHT22;13988;52.446;13.280;2023-01-19T03:59:17;-3.90;99.90
26262;DHT22;13988;52.446;13.280;2023-01-19T04:01:44;-3.90;99.90
26262;DHT22;13988;52.446;13.280;2023-01-19T04:04:10;-3.90;99.90
26262;DHT22;13988;52.446;13.280;2023-01-19T04:06:38;-3.90;99.90
26262;DHT22;13988;52.446;13.280;2023-01-19T04:09:03;-3.90;99.90
26262;DHT22;13988;52.446;13.280;2023-01-19T04:11:29;-3.90;99.90
26262;DHT22;13988;52.446;13.280;2023-01-19T04:13:55;-3.90;99.90
26262;DHT22;13988;52.446;13.280;2023-01-19T04:16:20;-3.90;99.90
26262;DHT22;13988;52.446;13.280;2023-01-19T04:18:47;-3.90;99.90
26262;DHT22;13988;52.446;13.280;2023-01-19T04:21:13;-3.90;99.90
26262;DHT22;13988;52.446;13.280;2023-01-19T04:23:39;-3.90;99.90
26262;DHT22;13988;52.446;13.280;2023-01-19T04:26:06;-3.90;99.90
26262;DHT22;13988;52.446;13.280;2023-01-19T04:28:33;-3.90;99.90
26262;DHT22;13988;52.446;13.280;2023-01-19T04:30:59;-3.90;99.90
26262;DHT22;13988;52.446;13.280;2023-01-19T04:33:26;-3.90;99.90
26262;DHT22;13988;52.446;13.280;2023-01-19T04:35:52;-4.00;99.90
26262;DHT22;13988;52.446;13.280;2023-01-19T04:38:18;-4.00;99.90
26262;DHT22;13988;52.446;13.280;2023-01-19T04:40:44;-4.00;99.90
26262;DHT22;13988;52.446;13.280;2023-01-19T04:43:10;-4.00;99.90
26262;DHT22;13988;52.446;13.280;2023-01-19T04:45:36;-4.00;99.90
26262;DHT22;13988;52.446;13.280;2023-01-19T04:48:02;-4.00;99.90
26262;DHT22;13988;52.446;13.280;2023-01-19T04:50:31;-4.00;99.90
26262;DHT22;13988;52.446;13.280;2023-01-19T04:52:57;-4.00;99.90
26262;DHT22;13988;52.446;13.280;2023-01-19T04:55:23;-4.00;99.90
26262;DHT22;13988;52.446;13.280;2023-01-19T04:57:49;-4.00;99.90
26262;DHT22;13988;52.446;13.280;2023-01-19T05:00:15;-4.00;99.90
26262;DHT22;13988;52.446;13.280;2023-01-19T05:02:42;-4.00;99.90
26262;DHT22;13988;52.446;13.280;2023-01-19T05:05:09;-4.00;99.90
26262;DHT22;13988;52.446;13.280;2023-01-19T05:07:35;-4.00;99.90
26262;DHT22;13988;52.446;13.280;2023-01-19T05:10:01;-4.00;99.90
26262;DHT22;13988;52.446;13.280;2023-01-19T05:12:26;-4.00;99.90
26262;DHT22;13988;52.446;13.280;2023-01-19T05:14:52;-4.00;99.90
26262;DHT22;13988;52.446;13.280;2023-01-19T05:17:18;-4.00;99.90
26262;DHT22;13988;52.446;13.280;2023-01-19T05:19:43;-4.10;99.90
26262;DHT22;13988;52.446;13.280;2023-01-19T05:22:09;-4.10;99.90
26262;DHT22;13988;52.446;13.280;2023-01-19T05:24:35;-4.10;99.90
26262;DHT22;13988;52.446;13.280;2023-01-19T05:27:01;-4.10;99.90
26262;DHT22;13988;52.446;13.280;2023-01-19T05:29:26;-4.10;99.90
26262;DHT22;13988;52.446;13.280;2023-01-19T05:31:52;-4.10;99.90
26262;DHT22;13988;52.446;13.280;2023-01-19T05:34:18;-4.10;99.90
26262;DHT22;13988;52.446;13.280;2023-01-19T05:36:43;-4.10;99.90
26262;DHT22;13988;52.446;13.280;2023-01-19T05:39:09;-4.00;99.90
26262;DHT22;13988;52.446;13.280;2023-01-19T05:41:34;-4.10;99.90
26262;DHT22;13988;52.446;13.280;2023-01-19T05:44:00;-4.10;99.90
26262;DHT22;13988;52.446;13.280;2023-01-19T05:46:26;-4.10;99.90
26262;DHT22;13988;52.446;13.280;2023-01-19T05:48:51;-4.10;99.90
26262;DHT22;13988;52.446;13.280;2023-01-19T05:51:17;-4.00;99.90
26262;DHT22;13988;52.446;13.280;2023-01-19T05:53:43;-4.00;99.90
26262;DHT22;13988;52.446;13.280;2023-01-19T05:56:09;-4.00;99.90
26262;DHT22;13988;52.446;13.280;2023-01-19T05:58:35;-4.10;99.90
26262;DHT22;13988;52.446;13.280;2023-01-19T06:01:05;-4.00;99.90
26262;DHT22;13988;52.446;13.280;2023-01-19T06:03:32;-4.10;99.90
26262;DHT22;13988;52.446;13.280;2023-01-19T06:05:58;-4.10;99.90
26262;DHT22;13988;52.446;13.280;2023-01-19T06:08:24;-4.20;99.90
26262;DHT22;13988;52.446;13.280;2023-01-19T06:10:50;-4.10;99.90
26262;DHT22;13988;52.446;13.280;2023-01-19T06:13:16;-4.20;99.90
26262;DHT22;13988;52.446;13.280;2023-01-19T06:15:42;-4.20;99.90
26262;DHT22;13988;52.446;13.280;2023-01-19T06:18:10;-4.20;99.90
26262;DHT22;13988;52.446;13.280;2023-01-19T06:20:36;-4.20;99.90
26262;DHT22;13988;52.446;13.280;2023-01-19T06:23:01;-4.10;99.90
26262;DHT22;13988;52.446;13.280;2023-01-19T06:25:28;-4.10;99.90
26262;DHT22;13988;52.446;13.280;2023-01-19T06:27:53;-4.10;99.90
26262;DHT22;13988;52.446;13.280;2023-01-19T06:30:19;-4.10;99.90
26262;DHT22;13988;52.446;13.280;2023-01-19T06:32:45;-4.10;99.90
26262;DHT22;13988;52.446;13.280;2023-01-19T06:35:12;-4.10;99.90
26262;DHT22;13988;52.446;13.280;2023-01-19T06:37:38;-4.10;99.90
26262;DHT22;13988;52.446;13.280;2023-01-19T06:40:04;-4.10;99.90
26262;DHT22;13988;52.446;13.280;2023-01-19T06:42:30;-4.10;99.90
26262;DHT22;13988;52.446;13.280;2023-01-19T06:44:56;-4.10;99.90
26262;DHT22;13988;52.446;13.280;2023-01-19T06:47:21;-4.10;99.90
26262;DHT22;13988;52.446;13.280;2023-01-19T06:49:47;-4.20;99.90
26262;DHT22;13988;52.446;13.280;2023-01-19T06:52:13;-4.10;99.90
26262;DHT22;13988;52.446;13.280;2023-01-19T06:54:41;-4.20;99.90
26262;DHT22;13988;52.446;13.280;2023-01-19T06:57:08;-4.20;99.90
26262;DHT22;13988;52.446;13.280;2023-01-19T06:59:34;-4.20;99.90
26262;DHT22;13988;52.446;13.280;2023-01-19T07:01:59;-4.20;99.90
26262;DHT22;13988;52.446;13.280;2023-01-19T07:04:25;-4.20;99.90
26262;DHT22;13988;52.446;13.280;2023-01-19T07:06:51;-4.20;99.90
26262;DHT22;13988;52.446;13.280;2023-01-19T07:09:17;-4.20;99.90
26262;DHT22;13988;52.446;13.280;2023-01-19T07:11:45;-4.20;99.90
26262;DHT22;13988;52.446;13.280;2023-01-19T07:14:10;-4.10;99.90
26262;DHT22;13988;52.446;13.280;2023-01-19T07:16:36;-4.10;99.90
26262;DHT22;13988;52.446;13.280;2023-01-19T07:19:02;-4.10;99.90
26262;DHT22;13988;52.446;13.280;2023-01-19T07:21:28;-4.10;99.90
26262;DHT22;13988;52.446;13.280;2023-01-19T07:23:53;-4.10;99.90
26262;DHT22;13988;52.446;13.280;2023-01-19T07:26:20;-4.10;99.90
26262;DHT22;13988;52.446;13.280;2023-01-19T07:28:46;-4.10;99.90
26262;DHT22;13988;52.446;13.280;2023-01-19T07:31:13;-4.00;99.90
26262;DHT22;13988;52.446;13.280;2023-01-19T07:33:38;-4.00;99.90
26262;DHT22;13988;52.446;13.280;2023-01-19T07:36:04;-4.10;99.90
26262;DHT22;13988;52.446;13.280;2023-01-19T07:38:30;-4.00;99.90
26262;DHT22;13988;52.446;13.280;2023-01-19T07:41:03;-4.00;99.90
26262;DHT22;13988;52.446;13.280;2023-01-19T07:43:29;-4.00;99.90
26262;DHT22;13988;52.446;13.280;2023-01-19T07:45:57;-4.00;99.90
26262;DHT22;13988;52.446;13.280;2023-01-19T07:48:23;-4.00;99.90
26262;DHT22;13988;52.446;13.280;2023-01-19T07:50:48;-3.90;99.90
26262;DHT22;13988;52.446;13.280;2023-01-19T07:53:14;-3.90;99.90
26262;DHT22;13988;52.446;13.280;2023-01-19T07:55:40;-4.00;99.90
26262;DHT22;13988;52.446;13.280;2023-01-19T07:58:05;-3.90;99.90
26262;DHT22;13988;52.446;13.280;2023-01-19T08:00:32;-3.70;99.90
26262;DHT22;13988;52.446;13.280;2023-01-19T08:02:59;-3.80;99.90
26262;DHT22;13988;52.446;13.280;2023-01-19T08:05:25;-3.70;99.90
26262;DHT22;13988;52.446;13.280;2023-01-19T08:07:54;-3.70;99.90
26262;DHT22;13988;52.446;13.280;2023-01-19T08:10:22;-3.60;99.90
26262;DHT22;13988;52.446;13.280;2023-01-19T08:12:50;-3.60;99.90
26262;DHT22;13988;52.446;13.280;2023-01-19T08:15:17;-3.60;99.90
26262;DHT22;13988;52.446;13.280;2023-01-19T08:17:42;-3.60;99.90
26262;DHT22;13988;52.446;13.280;2023-01-19T08:20:09;-3.60;99.90
26262;DHT22;13988;52.446;13.280;2023-01-19T08:22:36;-3.50;99.90
26262;DHT22;13988;52.446;13.280;2023-01-19T08:25:02;-3.50;99.90
26262;DHT22;13988;52.446;13.280;2023-01-19T08:27:28;-3.50;99.90
26262;DHT22;13988;52.446;13.280;2023-01-19T08:43:11;-3.30;99.90
26262;DHT22;13988;52.446;13.280;2023-01-19T08:45:39;-3.00;99.90
26262;DHT22;13988;52.446;13.280;2023-01-19T08:48:11;-3.00;99.90
26262;DHT22;13988;52.446;13.280;2023-01-19T08:50:38;-2.90;99.90
26262;DHT22;13988;52.446;13.280;2023-01-19T08:53:04;-2.80;99.90
26262;DHT22;13988;52.446;13.280;2023-01-19T08:55:34;-2.80;99.90
26262;DHT22;13988;52.446;13.280;2023-01-19T08:58:00;-2.70;99.90
26262;DHT22;13988;52.446;13.280;2023-01-19T09:00:28;-2.70;99.90
26262;DHT22;13988;52.446;13.280;2023-01-19T09:02:56;-2.60;99.90
26262;DHT22;13988;52.446;13.280;2023-01-19T09:05:22;-2.50;99.90
26262;DHT22;13988;52.446;13.280;2023-01-19T09:07:48;-2.50;99.90
26262;DHT22;13988;52.446;13.280;2023-01-19T09:10:16;-2.50;99.90
26262;DHT22;13988;52.446;13.280;2023-01-19T09:12:43;-2.40;99.90
26262;DHT22;13988;52.446;13.280;2023-01-19T09:15:10;-2.30;99.90
26262;DHT22;13988;52.446;13.280;2023-01-19T09:17:38;-2.30;99.90
26262;DHT22;13988;52.446;13.280;2023-01-19T09:20:05;-2.20;99.90
26262;DHT22;13988;52.446;13.280;2023-01-19T09:22:31;-2.10;99.90
26262;DHT22;13988;52.446;13.280;2023-01-19T09:24:57;-2.00;99.90
26262;DHT22;13988;52.446;13.280;2023-01-19T09:27:23;-2.00;99.90
26262;DHT22;13988;52.446;13.280;2023-01-19T09:29:49;-1.90;99.90
26262;DHT22;13988;52.446;13.280;2023-01-19T09:32:18;-1.90;99.90
26262;DHT22;13988;52.446;13.280;2023-01-19T09:34:45;-1.60;99.90
26262;DHT22;13988;52.446;13.280;2023-01-19T09:37:10;-1.80;99.90
26262;DHT22;13988;52.446;13.280;2023-01-19T09:39:36;-1.80;99.90
26262;DHT22;13988;52.446;13.280;2023-01-19T09:44:34;-1.70;99.90
26262;DHT22;13988;52.446;13.280;2023-01-19T09:47:12;-1.50;99.90
26262;DHT22;13988;52.446;13.280;2023-01-19T09:49:41;-1.40;99.90
26262;DHT22;13988;52.446;13.280;2023-01-19T09:52:11;-1.40;99.90
26262;DHT22;13988;52.446;13.280;2023-01-19T09:54:57;-1.40;99.90
26262;DHT22;13988;52.446;13.280;2023-01-19T09:57:24;-1.30;99.90
26262;DHT22;13988;52.446;13.280;2023-01-19T09:59:51;-1.30;99.90
26262;DHT22;13988;52.446;13.280;2023-01-19T10:02:35;-1.20;99.90
26262;DHT22;13988;52.446;13.280;2023-01-19T10:05:27;-1.20;99.90
26262;DHT22;13988;52.446;13.280;2023-01-19T10:10:38;-1.00;99.90
26262;DHT22;13988;52.446;13.280;2023-01-19T10:15:53;-0.90;99.90
26262;DHT22;13988;52.446;13.280;2023-01-19T10:18:25;-0.80;99.90
26262;DHT22;13988;52.446;13.280;2023-01-19T10:23:40;-0.80;99.90
26262;DHT22;13988;52.446;13.280;2023-01-19T10:26:37;-0.60;99.90
26262;DHT22;13988;52.446;13.280;2023-01-19T10:29:07;-0.60;99.90
26262;DHT22;13988;52.446;13.280;2023-01-19T10:31:34;-0.50;99.90
26262;DHT22;13988;52.446;13.280;2023-01-19T10:34:02;-0.50;99.90
26262;DHT22;13988;52.446;13.280;2023-01-19T10:36:34;-0.50;99.90
26262;DHT22;13988;52.446;13.280;2023-01-19T10:39:01;-0.40;99.90
26262;DHT22;13988;52.446;13.280;2023-01-19T10:41:44;-0.40;99.90
26262;DHT22;13988;52.446;13.280;2023-01-19T10:44:26;-0.50;99.90
26262;DHT22;13988;52.446;13.280;2023-01-19T10:46:54;-0.30;99.90
26262;DHT22;13988;52.446;13.280;2023-01-19T10:51:59;-0.10;99.90
26262;DHT22;13988;52.446;13.280;2023-01-19T10:54:26;-0.10;99.90
26262;DHT22;13988;52.446;13.280;2023-01-19T10:56:56;0.10;99.90
26262;DHT22;13988;52.446;13.280;2023-01-19T10:59:37;0.10;99.90
26262;DHT22;13988;52.446;13.280;2023-01-19T11:02:22;0.10;99.90
26262;DHT22;13988;52.446;13.280;2023-01-19T11:04:58;0.20;99.90
26262;DHT22;13988;52.446;13.280;2023-01-19T11:07:29;0.10;99.90
26262;DHT22;13988;52.446;13.280;2023-01-19T11:13:04;0.20;99.90
26262;DHT22;13988;52.446;13.280;2023-01-19T11:18:06;0.50;99.90
26262;DHT22;13988;52.446;13.280;2023-01-19T11:20:49;0.50;99.90
26262;DHT22;13988;52.446;13.280;2023-01-19T11:23:25;0.50;99.90
26262;DHT22;13988;52.446;13.280;2023-01-19T11:25:53;0.60;99.90
26262;DHT22;13988;52.446;13.280;2023-01-19T11:28:33;0.70;99.90
26262;DHT22;13988;52.446;13.280;2023-01-19T11:36:17;1.10;99.90
26262;DHT22;13988;52.446;13.280;2023-01-19T11:38:47;1.10;99.90
26262;DHT22;13988;52.446;13.280;2023-01-19T11:43:44;1.50;99.90
26262;DHT22;13988;52.446;13.280;2023-01-19T11:46:13;1.40;99.90
26262;DHT22;13988;52.446;13.280;2023-01-19T11:48:47;1.60;99.90
26262;DHT22;13988;52.446;13.280;2023-01-19T11:51:16;1.80;99.90
26262;DHT22;13988;52.446;13.280;2023-01-19T11:53:47;1.90;99.90
26262;DHT22;13988;52.446;13.280;2023-01-19T11:56:14;1.90;99.90
26262;DHT22;13988;52.446;13.280;2023-01-19T11:58:42;2.10;99.90
26262;DHT22;13988;52.446;13.280;2023-01-19T12:03:37;1.90;99.90
26262;DHT22;13988;52.446;13.280;2023-01-19T12:06:08;1.90;99.90
26262;DHT22;13988;52.446;13.280;2023-01-19T12:08:40;2.30;99.90
26262;DHT22;13988;52.446;13.280;2023-01-19T12:11:09;2.60;99.90
26262;DHT22;13988;52.446;13.280;2023-01-19T12:13:39;3.20;99.90
26262;DHT22;13988;52.446;13.280;2023-01-19T12:16:15;5.80;99.90
26262;DHT22;13988;52.446;13.280;2023-01-19T12:18:45;6.70;99.90
26262;DHT22;13988;52.446;13.280;2023-01-19T12:21:12;5.80;99.90
26262;DHT22;13988;52.446;13.280;2023-01-19T12:26:51;6.50;99.90
26262;DHT22;13988;52.446;13.280;2023-01-19T12:29:17;7.20;99.90
26262;DHT22;13988;52.446;13.280;2023-01-19T12:31:44;7.10;99.90
26262;DHT22;13988;52.446;13.280;2023-01-19T12:36:52;7.60;99.90
26262;DHT22;13988;52.446;13.280;2023-01-19T12:39:22;7.00;99.90
26262;DHT22;13988;52.446;13.280;2023-01-19T12:42:04;6.90;99.90
26262;DHT22;13988;52.446;13.280;2023-01-19T12:44:31;6.20;99.90
26262;DHT22;13988;52.446;13.280;2023-01-19T12:46:59;7.00;99.90
26262;DHT22;13988;52.446;13.280;2023-01-19T12:49:52;5.00;99.90
26262;DHT22;13988;52.446;13.280;2023-01-19T12:55:05;3.80;99.90
26262;DHT22;13988;52.446;13.280;2023-01-19T12:58:07;3.20;99.90
26262;DHT22;13988;52.446;13.280;2023-01-19T13:00:36;3.10;99.90
26262;DHT22;13988;52.446;13.280;2023-01-19T13:05:52;4.60;99.90
26262;DHT22;13988;52.446;13.280;2023-01-19T13:09:23;4.30;99.90
26262;DHT22;13988;52.446;13.280;2023-01-19T13:11:16;4.60;99.90
26262;DHT22;13988;52.446;13.280;2023-01-19T13:21:48;5.10;99.90
26262;DHT22;13988;52.446;13.280;2023-01-19T13:24:19;5.00;99.90
26262;DHT22;13988;52.446;13.280;2023-01-19T13:29:33;5.50;99.90
26262;DHT22;13988;52.446;13.280;2023-01-19T13:32:20;5.20;99.90
26262;DHT22;13988;52.446;13.280;2023-01-19T13:34:58;4.60;99.90
26262;DHT22;13988;52.446;13.280;2023-01-19T13:37:32;4.30;99.90
26262;DHT22;13988;52.446;13.280;2023-01-19T13:39:59;6.20;99.90
26262;DHT22;13988;52.446;13.280;2023-01-19T13:42:36;6.40;99.90
26262;DHT22;13988;52.446;13.280;2023-01-19T13:45:31;6.90;99.90
26262;DHT22;13988;52.446;13.280;2023-01-19T13:48:00;6.70;99.90
26262;DHT22;13988;52.446;13.280;2023-01-19T13:50:33;5.20;99.90
26262;DHT22;13988;52.446;13.280;2023-01-19T13:52:59;5.20;99.90
26262;DHT22;13988;52.446;13.280;2023-01-19T13:55:28;5.10;99.90
26262;DHT22;13988;52.446;13.280;2023-01-19T13:57:55;5.90;99.90
26262;DHT22;13988;52.446;13.280;2023-01-19T14:00:26;5.40;99.90
26262;DHT22;13988;52.446;13.280;2023-01-19T14:03:22;5.30;99.90
26262;DHT22;13988;52.446;13.280;2023-01-19T14:05:50;4.50;99.90
26262;DHT22;13988;52.446;13.280;2023-01-19T14:08:16;4.60;99.90
26262;DHT22;13988;52.446;13.280;2023-01-19T14:13:19;4.20;99.90
26262;DHT22;13988;52.446;13.280;2023-01-19T14:15:47;4.10;99.90
26262;DHT22;13988;52.446;13.280;2023-01-19T14:20:39;2.50;99.90
26262;DHT22;13988;52.446;13.280;2023-01-19T14:23:28;2.10;99.90
26262;DHT22;13988;52.446;13.280;2023-01-19T14:25:51;1.80;99.90
26262;DHT22;13988;52.446;13.280;2023-01-19T14:28:35;1.70;99.90
26262;DHT22;13988;52.446;13.280;2023-01-19T14:31:23;1.50;99.90
26262;DHT22;13988;52.446;13.280;2023-01-19T14:33:55;1.20;99.90
26262;DHT22;13988;52.446;13.280;2023-01-19T14:38:57;1.20;99.90
26262;DHT22;13988;52.446;13.280;2023-01-19T14:41:26;1.20;99.90
26262;DHT22;13988;52.446;13.280;2023-01-19T14:43:55;1.10;99.90
26262;DHT22;13988;52.446;13.280;2023-01-19T14:46:21;1.10;99.90
26262;DHT22;13988;52.446;13.280;2023-01-19T14:48:48;1.20;99.90
26262;DHT22;13988;52.446;13.280;2023-01-19T14:51:17;1.20;99.90
26262;DHT22;13988;52.446;13.280;2023-01-19T14:53:49;1.20;99.90
26262;DHT22;13988;52.446;13.280;2023-01-19T14:56:30;1.20;99.90
26262;DHT22;13988;52.446;13.280;2023-01-19T14:58:58;1.20;99.90
26262;DHT22;13988;52.446;13.280;2023-01-19T15:01:26;1.20;99.90
26262;DHT22;13988;52.446;13.280;2023-01-19T15:03:56;1.20;99.90
26262;DHT22;13988;52.446;13.280;2023-01-19T15:06:23;1.10;99.90
26262;DHT22;13988;52.446;13.280;2023-01-19T15:08:49;1.10;99.90
26262;DHT22;13988;52.446;13.280;2023-01-19T15:11:28;1.30;99.90
26262;DHT22;13988;52.446;13.280;2023-01-19T15:13:55;1.20;99.90
26262;DHT22;13988;52.446;13.280;2023-01-19T15:16:21;1.20;99.90
26262;DHT22;13988;52.446;13.280;2023-01-19T15:18:47;1.20;99.90
26262;DHT22;13988;52.446;13.280;2023-01-19T15:21:14;1.10;99.90
26262;DHT22;13988;52.446;13.280;2023-01-19T15:23:40;1.10;99.90
26262;DHT22;13988;52.446;13.280;2023-01-19T15:26:09;1.10;99.90
26262;DHT22;13988;52.446;13.280;2023-01-19T15:28:37;1.00;99.90
26262;DHT22;13988;52.446;13.280;2023-01-19T15:31:03;1.00;99.90
26262;DHT22;13988;52.446;13.280;2023-01-19T15:33:29;1.00;99.90
26262;DHT22;13988;52.446;13.280;2023-01-19T15:35:55;1.00;99.90
26262;DHT22;13988;52.446;13.280;2023-01-19T15:38:21;1.00;99.90
26262;DHT22;13988;52.446;13.280;2023-01-19T15:40:48;0.90;99.90
26262;DHT22;13988;52.446;13.280;2023-01-19T15:43:14;1.00;99.90
26262;DHT22;13988;52.446;13.280;2023-01-19T15:45:48;0.90;99.90
26262;DHT22;13988;52.446;13.280;2023-01-19T15:48:15;0.90;99.90
26262;DHT22;13988;52.446;13.280;2023-01-19T15:50:44;0.90;99.90
26262;DHT22;13988;52.446;13.280;2023-01-19T15:53:21;0.70;99.90
26262;DHT22;13988;52.446;13.280;2023-01-19T15:55:52;0.80;99.90
26262;DHT22;13988;52.446;13.280;2023-01-19T15:58:22;0.80;99.90
26262;DHT22;13988;52.446;13.280;2023-01-19T16:00:53;0.80;99.90
26262;DHT22;13988;52.446;13.280;2023-01-19T16:03:19;0.80;99.90
26262;DHT22;13988;52.446;13.280;2023-01-19T16:05:44;0.70;99.90
26262;DHT22;13988;52.446;13.280;2023-01-19T16:08:12;0.70;99.90
26262;DHT22;13988;52.446;13.280;2023-01-19T16:10:42;0.70;99.90
26262;DHT22;13988;52.446;13.280;2023-01-19T16:13:09;0.70;99.90
26262;DHT22;13988;52.446;13.280;2023-01-19T16:15:35;0.70;99.90
26262;DHT22;13988;52.446;13.280;2023-01-19T16:18:02;0.70;99.90
26262;DHT22;13988;52.446;13.280;2023-01-19T16:20:28;0.70;99.90
26262;DHT22;13988;52.446;13.280;2023-01-19T16:22:54;0.70;99.90
26262;DHT22;13988;52.446;13.280;2023-01-19T16:25:19;0.70;99.90
26262;DHT22;13988;52.446;13.280;2023-01-19T16:27:47;0.80;99.90
26262;DHT22;13988;52.446;13.280;2023-01-19T16:30:13;0.80;99.90
26262;DHT22;13988;52.446;13.280;2023-01-19T16:32:40;0.70;99.90
26262;DHT22;13988;52.446;13.280;2023-01-19T16:35:06;0.70;99.90
26262;DHT22;13988;52.446;13.280;2023-01-19T16:37:32;0.70;99.90
26262;DHT22;13988;52.446;13.280;2023-01-19T16:39:58;0.70;99.90
26262;DHT22;13988;52.446;13.280;2023-01-19T16:42:24;0.70;99.90
26262;DHT22;13988;52.446;13.280;2023-01-19T16:44:49;0.70;99.90
26262;DHT22;13988;52.446;13.280;2023-01-19T16:47:15;0.70;99.90
26262;DHT22;13988;52.446;13.280;2023-01-19T16:49:41;0.70;99.90
26262;DHT22;13988;52.446;13.280;2023-01-19T16:52:06;0.70;99.90
26262;DHT22;13988;52.446;13.280;2023-01-19T16:54:32;0.70;99.90
26262;DHT22;13988;52.446;13.280;2023-01-19T16:56:58;0.70;99.90
26262;DHT22;13988;52.446;13.280;2023-01-19T16:59:24;0.70;99.90
26262;DHT22;13988;52.446;13.280;2023-01-19T17:01:54;0.70;99.90
26262;DHT22;13988;52.446;13.280;2023-01-19T17:04:21;0.70;99.90
26262;DHT22;13988;52.446;13.280;2023-01-19T17:06:46;0.70;99.90
26262;DHT22;13988;52.446;13.280;2023-01-19T17:09:13;0.70;99.90